WetterOnline ( http://www.wetteronline.de )

Wetter aktuell Hamburg

Aktuelles Wetter: Hamburg/Fuhlsbüttel (15m)

6-stündlich | Neueste Meldungen
Ortszeit Temperatur Wetter
Di, 19.02. 1:00 4.6° C leicht bewölkt
Mo, 18.02. 19:00 8.2° C fast wolkenlos
Mo, 18.02. 13:00 12.9° C wolkenlos
Mo, 18.02. 7:00 1.3° C leicht bewölkt
Mo, 18.02. 1:00 4.4° C leicht bewölkt
So, 17.02. 19:00 10.2° C leicht bewölkt
So, 17.02. 13:00 12.3° C fast wolkenlos
So, 17.02. 7:00 6.9° C bewölkt
Ortszeit Temperatur Wetter
Di, 19.02. 4:20 6° C bewölkt
Di, 19.02. 4:00 5.4° C bedeckt
Di, 19.02. 3:50 5.4° C -
Di, 19.02. 3:40 4.8° C -
Di, 19.02. 3:30 5.3° C -
Di, 19.02. 3:20 5.3° C -
Di, 19.02. 3:00 5.1° C leicht bewölkt
Di, 19.02. 2:30 5.4° C -
Di, 19.02. 2:00 4.4° C leicht bewölkt
Di, 19.02. 1:30 4.4° C -
Di, 19.02. 1:00 4.6° C leicht bewölkt
Ortszeit Relative Feuchte Sichtweite
Di, 19.02. 1:00 77% 35 km
Mo, 18.02. 19:00 64% 20 km
Mo, 18.02. 13:00 51% 25 km
Mo, 18.02. 7:00 93% 15 km
Mo, 18.02. 1:00 82% 15 km
So, 17.02. 19:00 59% 25 km
So, 17.02. 13:00 52% 15 km
So, 17.02. 7:00 79% 13 km
Ortszeit Relative Feuchte Sichtweite
Di, 19.02. 4:20 75% >10 km
Di, 19.02. 4:00 78% 20 km
Di, 19.02. 3:50 78% -
Di, 19.02. 3:40 77% -
Di, 19.02. 3:30 75% 8 km
Di, 19.02. 3:20 75% -
Di, 19.02. 3:00 74% 30 km
Di, 19.02. 2:30 72% 10 km
Di, 19.02. 2:00 77% 35 km
Di, 19.02. 1:30 76% 10 km
Di, 19.02. 1:00 77% 35 km
Ortszeit Niederschlagsmenge Niederschlagsart
Di, 19.02. 1:00 0.0 l/m2 in 6 Std. -
Mo, 18.02. 19:00 0.0 l/m2 in 12 Std. -
Mo, 18.02. 13:00 0.0 l/m2 in 6 Std. -
Mo, 18.02. 7:00 0.0 l/m2 in 12 Std. -
Mo, 18.02. 1:00 0.0 l/m2 in 6 Std. -
So, 17.02. 19:00 0.0 l/m2 in 12 Std. -
So, 17.02. 13:00 0.0 l/m2 in 6 Std. -
So, 17.02. 7:00 0.0 l/m2 in 12 Std. -
Ortszeit Niederschlagsmenge Niederschlagsart
Di, 19.02. 4:20 keine Meldung -
Di, 19.02. 4:00 0.0 l/m2 in 1 Std. -
Di, 19.02. 3:50 keine Meldung -
Di, 19.02. 3:40 keine Meldung -
Di, 19.02. 3:30 0.0 l/m2 in 1 Std. -
Di, 19.02. 3:20 keine Meldung -
Di, 19.02. 3:00 0.0 l/m2 in 1 Std. -
Di, 19.02. 2:30 0.0 l/m2 in 1 Std. -
Di, 19.02. 2:00 0.0 l/m2 in 1 Std. -
Di, 19.02. 1:30 0.0 l/m2 in 1 Std. -
Di, 19.02. 1:00 0.0 l/m2 in 1 Std. -
Ortszeit Stärke Spitze Richtung
km/h Bft. km/h Grad Sektor
Di, 19.02. 1:00 4 1 14 190° S
Mo, 18.02. 19:00 6 1 26 170° S
Mo, 18.02. 13:00 13 3 19 170° S
Mo, 18.02. 7:00 7 2 11 160° S
Mo, 18.02. 1:00 4 1 14 150° SO
So, 17.02. 19:00 7 2 22 150° SO
So, 17.02. 13:00 13 3 20 170° S
So, 17.02. 7:00 7 2 22 190° S
Ortszeit Stärke Spitze Richtung
km/h Bft. km/h Grad Sektor
Di, 19.02. 4:20 15 3 - 230° SW
Di, 19.02. 4:00 14 3 14 230° SW
Di, 19.02. 3:50 14 3 - 230° SW
Di, 19.02. 3:40 13 3 - 220° SW
Di, 19.02. 3:30 11 2 13 220° SW
Di, 19.02. 3:20 11 2 - 220° SW
Di, 19.02. 3:00 11 2 14 230° SW
Di, 19.02. 2:30 9 2 11 210° SW
Di, 19.02. 2:00 7 2 11 220° SW
Di, 19.02. 1:30 7 2 9 170° S
Di, 19.02. 1:00 4 1 7 190° S
Ortszeit Untergrenze Bedeckung Gattung
total tief tief mittel hoch
Di, 19.02. 1:00 3600 m 7/8 1/8 - Ac Ci
Mo, 18.02. 19:00 7500 m 1/8 0/8 - - Ci
Mo, 18.02. 13:00 - 0/8 0/8 - - -
Mo, 18.02. 7:00 9000 m 2/8 0/8 - - Ci
Mo, 18.02. 1:00 8400 m 7/8 0/8 - - Cs
So, 17.02. 19:00 7500 m 6/8 0/8 - - Ci
So, 17.02. 13:00 7500 m 1/8 0/8 - - Ci
So, 17.02. 7:00 600 m 7/8 7/8 Sc - -
Ortszeit Bedeckungsgrad in Achtel und Wolkenuntergrenze
Di, 19.02. 4:20 1-2(540m) 5-7(660m)
Di, 19.02. 4:00 2(480m) 7(540m) 8
Di, 19.02. 3:50 -
Di, 19.02. 3:40 -
Di, 19.02. 3:30 -
Di, 19.02. 3:20 -
Di, 19.02. 3:00 1(3300m) 7(7200m)
Di, 19.02. 2:30 -
Di, 19.02. 2:00 7(7500m)
Di, 19.02. 1:30 -
Di, 19.02. 1:00 1(3600m) 7(6900m)
Ortszeit Luftdruck NN (hPa) Tendenz (hPa in 3 Std.)
Di, 19.02. 1:00 1013 - 0,9
Mo, 18.02. 19:00 1014 - 1,4
Mo, 18.02. 13:00 1017 - 1,8
Mo, 18.02. 7:00 1019 - 0,4
Mo, 18.02. 1:00 1020 - 0,2
So, 17.02. 19:00 1020 - 0,4
So, 17.02. 13:00 1023 - 1,2
So, 17.02. 7:00 1024 - 0,2
Ortszeit Luftdruck NN (hPa) Tendenz (hPa in 3 Std.)
Di, 19.02. 4:20 1011 keine Meldung
Di, 19.02. 4:00 1012 - 0,9
Di, 19.02. 3:50 1012 keine Meldung
Di, 19.02. 3:40 1012 keine Meldung
Di, 19.02. 3:30 1012 - 1,0
Di, 19.02. 3:20 1012 keine Meldung
Di, 19.02. 3:00 1012 - 1,0
Di, 19.02. 2:30 1012 - 1,0
Di, 19.02. 2:00 1012 - 1,0
Di, 19.02. 1:30 1013 - 1,1
Di, 19.02. 1:00 1013 - 0,9
Ortszeit Schneehöhe (cm)
Di, 19.02. 1:00 0
Mo, 18.02. 19:00 0
Mo, 18.02. 13:00 0
Mo, 18.02. 7:00 0
Mo, 18.02. 1:00 0
So, 17.02. 19:00 0
So, 17.02. 13:00 0
So, 17.02. 7:00 0
Ortszeit Schneehöhe (cm)
Di, 19.02. 4:20 -
Di, 19.02. 4:00 -
Di, 19.02. 3:50 -
Di, 19.02. 3:40 -
Di, 19.02. 3:30 -
Di, 19.02. 3:20 -
Di, 19.02. 3:00 -
Di, 19.02. 2:30 -
Di, 19.02. 2:00 -
Di, 19.02. 1:30 -
Di, 19.02. 1:00 0
Link zu dieser Seite / Seite empfehlen

Das Wetter in ...